Time;durP1;ratioP1;P1;durP2;ratioP2;P2;SDS_P1;SDS_P2;PMS_P1;PMS_P2;Temp;Humidity;BMP_temperature;BMP_pressure;BME280_temperature;BME280_humidity;BME280_pressure;Samples;Min_cycle;Max_cycle;Signal;HPM_P1;HPM_P2
2022/06/08 00:02:10;;;;;;;4.13;0.65;;;19.10;99.90;;;;;;5034295;28;20481;-84
2022/06/08 00:04:36;;;;;;;2.80;0.60;;;19.10;99.90;;;;;;5017738;28;20033;-84
2022/06/08 00:07:03;;;;;;;1.13;0.50;;;19.10;99.90;;;;;;5017522;28;20035;-84
2022/06/08 00:09:29;;;;;;;3.15;0.70;;;19.10;99.90;;;;;;5035666;28;20115;-84
2022/06/08 00:11:54;;;;;;;2.28;0.50;;;19.00;99.90;;;;;;5017517;28;20022;-84
2022/06/08 00:14:20;;;;;;;1.13;0.60;;;19.10;99.90;;;;;;5017658;28;20029;-84
2022/06/08 00:16:46;;;;;;;1.88;0.47;;;19.10;99.90;;;;;;5001490;28;20057;-83
2022/06/08 00:19:13;;;;;;;1.52;0.80;;;19.10;99.90;;;;;;5017364;28;20064;-84
2022/06/08 00:21:39;;;;;;;2.58;0.57;;;19.10;99.90;;;;;;5035139;28;20053;-84
2022/06/08 00:24:05;;;;;;;3.63;0.60;;;19.00;99.90;;;;;;5030383;28;20127;-84
2022/06/08 00:26:30;;;;;;;1.73;0.60;;;19.10;99.90;;;;;;5054911;28;20032;-84
2022/06/08 00:28:56;;;;;;;4.45;0.80;;;19.00;99.90;;;;;;5037082;28;20099;-84
2022/06/08 00:31:22;;;;;;;1.40;0.60;;;19.00;99.90;;;;;;5037633;28;20028;-84
2022/06/08 00:33:48;;;;;;;3.35;0.70;;;19.00;99.90;;;;;;5055170;28;20028;-84
2022/06/08 00:36:14;;;;;;;2.38;0.55;;;19.00;99.90;;;;;;5036939;28;20052;-84
2022/06/08 00:38:40;;;;;;;1.55;0.60;;;19.00;99.90;;;;;;5036897;28;20063;-84
2022/06/08 00:41:20;;;;;;;2.70;0.57;;;19.00;99.90;;;;;;5054702;28;20029;-84
2022/06/08 00:43:46;;;;;;;2.53;0.77;;;19.00;99.90;;;;;;5036872;28;20028;-84
2022/06/08 00:46:13;;;;;;;3.95;0.70;;;19.00;99.90;;;;;;5036632;28;20509;-84
2022/06/08 00:48:46;;;;;;;1.08;0.50;;;19.00;99.90;;;;;;5037277;28;20037;-84
2022/06/08 00:51:12;;;;;;;1.63;0.75;;;19.00;99.90;;;;;;5036561;28;20017;-84
2022/06/08 00:53:44;;;;;;;2.63;0.60;;;19.00;99.90;;;;;;5054475;28;20017;-84
2022/06/08 00:56:15;;;;;;;1.70;0.60;;;19.00;99.90;;;;;;5054353;28;20025;-84
2022/06/08 00:58:43;;;;;;;2.15;0.68;;;18.90;99.90;;;;;;5036462;28;20025;-84
2022/06/08 01:01:09;;;;;;;2.55;0.60;;;18.90;99.90;;;;;;5036155;28;20036;-83
2022/06/08 01:03:34;;;;;;;1.42;0.60;;;18.90;99.90;;;;;;5037151;28;20528;-83
2022/06/08 01:06:13;;;;;;;2.00;0.60;;;18.90;99.90;;;;;;5036160;28;20056;-84
2022/06/08 01:08:40;;;;;;;2.47;0.70;;;18.90;99.90;;;;;;5036332;28;20119;-84
2022/06/08 01:11:32;;;;;;;2.55;0.93;;;18.90;99.90;;;;;;5036227;28;20025;-84
2022/06/08 01:14:02;;;;;;;2.17;0.90;;;18.90;99.90;;;;;;5036232;28;20388;-84
2022/06/08 01:16:27;;;;;;;1.83;0.60;;;18.90;99.90;;;;;;5036237;28;20160;-84
2022/06/08 01:18:54;;;;;;;4.22;0.88;;;18.90;99.90;;;;;;5053989;28;20056;-84
2022/06/08 01:21:23;;;;;;;5.90;0.80;;;18.80;99.90;;;;;;5036097;28;20025;-83
2022/06/08 01:23:50;;;;;;;2.10;0.65;;;18.80;99.90;;;;;;5035864;28;20564;-84
2022/06/08 01:26:27;;;;;;;3.10;0.65;;;18.80;99.90;;;;;;5053825;28;20031;-84
2022/06/08 01:29:02;;;;;;;5.78;0.63;;;18.80;99.90;;;;;;5036024;28;20017;-84
2022/06/08 01:31:46;;;;;;;;;;;18.80;99.90;;;;;;5036278;28;20071;-84
2022/06/08 01:34:21;;;;;;;2.17;0.75;;;18.80;99.90;;;;;;5035956;28;20384;-84
2022/06/08 01:37:22;;;;;;;6.55;1.10;;;18.80;99.90;;;;;;5035892;28;20028;-84
2022/06/08 01:40:17;;;;;;;2.17;0.70;;;18.80;99.90;;;;;;4994193;28;20060;-84
2022/06/08 01:43:27;;;;;;;3.65;0.77;;;18.80;99.90;;;;;;5019108;28;20037;-84
2022/06/08 01:46:19;;;;;;;1.35;0.65;;;18.70;99.90;;;;;;5015886;28;20041;-84
2022/06/08 01:49:00;;;;;;;1.95;0.70;;;18.70;99.90;;;;;;5035753;28;20025;-84
2022/06/08 01:51:47;;;;;;;2.67;0.80;;;18.70;99.90;;;;;;5035938;28;20025;-84
2022/06/08 01:54:21;;;;;;;3.22;0.68;;;18.70;99.90;;;;;;5053512;28;20472;-84
2022/06/08 01:57:21;;;;;;;1.80;0.80;;;18.70;99.90;;;;;;5053723;28;20486;-84
2022/06/08 01:59:46;;;;;;;1.52;0.70;;;18.70;99.90;;;;;;5035708;28;20029;-84
2022/06/08 02:02:24;;;;;;;2.95;0.73;;;18.70;99.90;;;;;;5035467;28;20120;-83
2022/06/08 02:05:05;;;;;;;4.35;0.80;;;18.70;99.90;;;;;;5035432;28;20040;-84
2022/06/08 02:07:42;;;;;;;5.25;1.30;;;18.70;99.90;;;;;;5035424;28;20031;-84
2022/06/08 02:10:23;;;;;;;1.67;0.70;;;18.70;99.90;;;;;;5035408;28;20033;-83
2022/06/08 02:12:54;;;;;;;3.08;0.70;;;18.70;99.90;;;;;;5035326;28;20393;-84
2022/06/08 02:15:28;;;;;;;3.78;0.65;;;18.70;99.90;;;;;;5035374;28;20079;-84
2022/06/08 02:17:56;;;;;;;1.23;0.65;;;18.70;99.90;;;;;;5019146;28;20029;-84
2022/06/08 02:20:42;;;;;;;2.38;0.85;;;18.70;99.90;;;;;;5035265;28;20029;-84
2022/06/08 02:23:17;;;;;;;4.68;0.80;;;18.60;99.90;;;;;;5035083;28;20052;-84
2022/06/08 02:25:49;;;;;;;5.05;0.93;;;18.60;99.90;;;;;;5035174;28;20590;-84
2022/06/08 02:28:24;;;;;;;3.22;0.82;;;18.60;99.90;;;;;;5035163;28;20025;-84
2022/06/08 02:30:58;;;;;;;2.13;0.70;;;18.60;99.90;;;;;;5035124;28;20032;-84
2022/06/08 02:36:49;;;;;;;4.95;1.00;;;18.60;99.90;;;;;;5053648;28;20033;-84
2022/06/08 02:39:27;;;;;;;1.10;0.80;;;18.60;99.90;;;;;;5019923;28;20044;-84
2022/06/08 02:41:58;;;;;;;1.65;1.00;;;18.60;99.90;;;;;;5035126;28;20021;-84
2022/06/08 02:44:30;;;;;;;1.85;0.68;;;18.60;99.90;;;;;;5035128;28;20068;-84
2022/06/08 02:47:20;;;;;;;4.68;0.70;;;18.60;99.90;;;;;;5034933;28;20036;-84
2022/06/08 02:49:45;;;;;;;2.33;0.70;;;18.50;99.90;;;;;;5034959;28;20028;-84
2022/06/08 02:52:19;;;;;;;3.15;0.77;;;18.60;99.90;;;;;;5034960;28;20025;-84
2022/06/08 02:54:48;;;;;;;2.88;0.70;;;18.50;99.90;;;;;;5034985;28;20021;-84
2022/06/08 02:57:41;;;;;;;3.78;0.95;;;18.50;99.90;;;;;;5052774;28;20083;-84
2022/06/08 03:00:27;;;;;;;4.15;0.82;;;18.50;99.90;;;;;;5034935;28;20052;-84
2022/06/08 03:03:08;;;;;;;3.00;0.80;;;18.50;99.90;;;;;;5021099;28;20040;-84
2022/06/08 03:05:40;;;;;;;3.67;0.73;;;18.50;99.90;;;;;;5034840;28;20029;-84
2022/06/08 03:08:16;;;;;;;1.02;0.73;;;18.50;99.90;;;;;;5034907;28;20056;-84
2022/06/08 03:10:44;;;;;;;1.67;0.75;;;18.50;99.90;;;;;;5053025;28;20052;-84
2022/06/08 03:13:51;;;;;;;4.38;0.85;;;18.50;99.90;;;;;;5052735;28;20099;-84
2022/06/08 03:16:32;;;;;;;0.93;0.68;;;18.50;99.90;;;;;;5018166;28;20048;-84
2022/06/08 03:18:58;;;;;;;2.83;0.90;;;18.50;99.90;;;;;;5019548;28;20041;-84
2022/06/08 03:21:25;;;;;;;3.42;0.90;;;18.50;99.90;;;;;;5034815;28;20021;-83
2022/06/08 03:23:52;;;;;;;1.35;0.60;;;18.50;99.90;;;;;;5035911;28;20049;-84
2022/06/08 03:26:20;;;;;;;2.20;0.95;;;18.40;99.90;;;;;;5038249;28;20115;-84
2022/06/08 03:28:46;;;;;;;3.15;1.08;;;18.40;99.90;;;;;;5038191;28;20017;-84
2022/06/08 03:31:12;;;;;;;1.15;0.80;;;18.40;99.90;;;;;;5038275;28;20021;-84
2022/06/08 03:33:38;;;;;;;3.40;1.00;;;18.40;99.90;;;;;;5038116;28;20078;-85
2022/06/08 03:36:04;;;;;;;2.88;1.00;;;18.40;99.90;;;;;;5056023;28;20039;-84
2022/06/08 03:38:30;;;;;;;3.60;0.88;;;18.40;99.90;;;;;;5055846;28;20108;-84
2022/06/08 03:40:57;;;;;;;3.70;0.82;;;18.40;99.90;;;;;;5038053;28;20448;-84
2022/06/08 03:43:22;;;;;;;8.02;1.00;;;18.40;99.90;;;;;;5021734;28;20488;-84
2022/06/08 03:45:53;;;;;;;4.85;1.05;;;18.40;99.90;;;;;;5055677;28;20048;-84
2022/06/08 03:48:20;;;;;;;2.65;0.90;;;18.40;99.90;;;;;;5037863;28;20117;-84
2022/06/08 03:50:49;;;;;;;2.28;0.90;;;18.40;99.90;;;;;;5037833;28;20476;-84
2022/06/08 03:53:21;;;;;;;1.90;0.95;;;18.40;99.90;;;;;;5055616;28;20159;-84
2022/06/08 03:55:50;;;;;;;1.25;0.88;;;18.40;99.90;;;;;;5037780;28;20029;-84
2022/06/08 03:58:17;;;;;;;2.30;0.70;;;18.40;99.90;;;;;;5038586;28;20081;-84
2022/06/08 04:00:43;;;;;;;1.75;0.77;;;18.40;99.90;;;;;;5037499;28;20488;-84
2022/06/08 04:03:10;;;;;;;1.52;0.70;;;18.40;99.90;;;;;;5037570;28;20167;-84
2022/06/08 04:05:37;;;;;;;2.55;1.05;;;18.40;99.90;;;;;;5037538;28;20111;-84
2022/06/08 04:08:04;;;;;;;2.20;0.80;;;18.40;99.90;;;;;;5037515;28;20111;-84
2022/06/08 04:10:30;;;;;;;2.92;0.85;;;18.40;99.90;;;;;;5037423;28;20032;-84
2022/06/08 04:12:58;;;;;;;2.60;1.05;;;18.40;99.90;;;;;;5037384;28;20025;-84
2022/06/08 04:15:43;;;;;;;1.83;0.85;;;18.40;99.90;;;;;;5021120;28;20447;-84
2022/06/08 04:18:15;;;;;;;5.80;1.13;;;18.40;99.90;;;;;;5037355;28;20064;-84
2022/06/08 04:20:44;;;;;;;3.35;0.93;;;18.40;99.90;;;;;;5020703;28;20037;-84
2022/06/08 04:23:10;;;;;;;4.63;0.93;;;18.40;99.90;;;;;;5036923;28;20467;-84
2022/06/08 04:25:39;;;;;;;3.47;1.00;;;18.40;99.90;;;;;;5020730;28;20032;-84
2022/06/08 04:28:05;;;;;;;3.95;1.10;;;18.40;99.90;;;;;;5037077;28;20071;-84
2022/06/08 04:30:31;;;;;;;2.25;0.82;;;18.40;99.90;;;;;;5037075;28;20488;-84
2022/06/08 04:32:57;;;;;;;4.07;1.30;;;18.40;99.90;;;;;;5020740;28;20127;-84
2022/06/08 04:35:25;;;;;;;2.35;0.68;;;18.40;99.90;;;;;;5035888;28;20022;-84
2022/06/08 04:37:51;;;;;;;2.78;0.82;;;18.40;99.90;;;;;;5054840;28;20032;-84
2022/06/08 04:40:18;;;;;;;1.63;0.90;;;18.40;99.90;;;;;;5036847;28;20025;-84
2022/06/08 04:42:44;;;;;;;3.13;1.08;;;18.40;99.90;;;;;;5036759;28;20021;-84
2022/06/08 04:45:12;;;;;;;2.10;0.90;;;18.40;99.90;;;;;;5036679;28;20101;-84
2022/06/08 04:47:38;;;;;;;3.78;0.90;;;18.40;99.90;;;;;;5036666;28;20116;-84
2022/06/08 04:50:05;;;;;;;2.15;1.00;;;18.40;99.90;;;;;;5020213;28;20029;-84
2022/06/08 04:52:31;;;;;;;2.53;0.80;;;18.40;99.90;;;;;;5054229;28;20075;-84
2022/06/08 04:54:57;;;;;;;4.05;1.08;;;18.30;99.90;;;;;;5054714;28;20025;-83
2022/06/08 04:57:23;;;;;;;1.33;0.75;;;18.30;99.90;;;;;;5036525;28;20025;-83
2022/06/08 04:59:49;;;;;;;4.57;1.20;;;18.30;99.90;;;;;;5036372;28;20123;-83
2022/06/08 05:02:42;;;;;;;3.60;1.27;;;18.30;99.90;;;;;;5036491;28;20110;-83
2022/06/08 05:05:01;;;;;;;3.47;1.08;;;18.30;99.90;;;;;;5054100;28;20033;-83
2022/06/08 05:07:27;;;;;;;2.72;0.90;;;18.30;99.90;;;;;;5054753;28;20036;-83
2022/06/08 05:09:52;;;;;;;2.28;0.95;;;18.30;99.90;;;;;;5054471;28;20028;-84
2022/06/08 05:12:18;;;;;;;1.90;0.55;;;18.30;99.90;;;;;;5036252;28;20021;-83
2022/06/08 05:14:44;;;;;;;2.03;0.70;;;18.30;99.90;;;;;;5054135;28;20025;-83
2022/06/08 05:17:09;;;;;;;1.77;0.80;;;18.30;99.90;;;;;;5036164;28;20032;-83
2022/06/08 05:19:35;;;;;;;2.75;0.85;;;18.30;99.90;;;;;;5053300;28;20044;-83
2022/06/08 05:22:01;;;;;;;2.38;0.80;;;18.30;99.90;;;;;;5053971;28;20028;-84
2022/06/08 05:24:26;;;;;;;3.53;1.30;;;18.30;99.90;;;;;;5035839;28;20077;-83
2022/06/08 05:26:52;;;;;;;2.13;0.98;;;18.30;99.90;;;;;;5035929;28;20028;-83
2022/06/08 05:29:18;;;;;;;4.28;1.30;;;18.30;99.90;;;;;;5035986;28;20029;-83
2022/06/08 05:31:43;;;;;;;2.47;1.10;;;18.30;99.90;;;;;;5035933;28;20091;-83
2022/06/08 05:34:09;;;;;;;3.30;0.82;;;18.30;99.90;;;;;;5035912;28;20361;-82
2022/06/08 05:36:34;;;;;;;2.67;1.10;;;18.30;99.90;;;;;;5035897;28;20452;-83
2022/06/08 05:39:00;;;;;;;3.90;1.33;;;18.30;99.90;;;;;;5053679;28;20032;-82
2022/06/08 05:41:26;;;;;;;3.38;1.10;;;18.30;99.90;;;;;;5035706;28;20132;-83
2022/06/08 05:43:51;;;;;;;4.57;1.00;;;18.30;99.90;;;;;;5053594;28;20079;-83
2022/06/08 05:46:17;;;;;;;4.10;1.27;;;18.30;99.90;;;;;;5035384;28;20441;-82
2022/06/08 05:48:43;;;;;;;3.83;1.13;;;18.30;99.90;;;;;;5035668;28;20377;-82
2022/06/08 05:51:09;;;;;;;2.42;1.25;;;18.30;99.90;;;;;;5035690;28;20023;-83
2022/06/08 05:53:35;;;;;;;3.50;0.98;;;18.30;99.90;;;;;;5035172;28;20106;-82
2022/06/08 05:56:01;;;;;;;2.08;0.88;;;18.30;99.90;;;;;;5035800;28;20035;-83
2022/06/08 05:58:27;;;;;;;2.03;1.00;;;18.30;99.90;;;;;;5053386;28;20384;-83
2022/06/08 06:00:53;;;;;;;2.28;0.70;;;18.30;99.90;;;;;;5053283;28;20025;-82
2022/06/08 06:03:19;;;;;;;3.28;1.10;;;18.30;99.90;;;;;;5053600;28;20040;-83
2022/06/08 06:05:45;;;;;;;4.88;0.90;;;18.30;99.90;;;;;;5035655;28;20380;-82
2022/06/08 06:08:12;;;;;;;4.28;0.90;;;18.30;99.90;;;;;;5035390;28;20575;-83
2022/06/08 06:10:41;;;;;;;4.82;1.00;;;18.30;99.90;;;;;;5035411;28;20025;-83
2022/06/08 06:13:07;;;;;;;2.20;0.85;;;18.30;99.90;;;;;;5035344;28;20116;-83
2022/06/08 06:15:33;;;;;;;3.70;0.93;;;18.30;99.90;;;;;;5035297;28;20052;-83
2022/06/08 06:17:59;;;;;;;2.72;1.00;;;18.30;99.90;;;;;;5035609;28;20058;-83
2022/06/08 06:20:26;;;;;;;4.30;1.10;;;18.40;99.90;;;;;;5035302;28;20112;-83
2022/06/08 06:22:52;;;;;;;6.20;1.00;;;18.30;99.90;;;;;;5051867;28;20501;-83
2022/06/08 06:25:17;;;;;;;3.42;1.02;;;18.30;99.90;;;;;;5015398;28;20038;-83
2022/06/08 06:27:43;;;;;;;3.10;1.00;;;18.30;99.90;;;;;;5033719;28;20508;-82
2022/06/08 06:30:11;;;;;;;2.35;1.00;;;18.30;99.90;;;;;;5015480;28;20025;-83
2022/06/08 06:32:38;;;;;;;5.18;1.02;;;18.30;99.90;;;;;;5015399;28;20032;-82
2022/06/08 06:35:08;;;;;;;3.45;0.90;;;18.40;99.90;;;;;;5033061;28;20030;-82
2022/06/08 06:37:34;;;;;;;5.30;1.25;;;18.40;99.90;;;;;;5015312;28;20075;-82
2022/06/08 06:40:00;;;;;;;6.18;1.20;;;18.40;99.90;;;;;;5015266;28;20187;-82
2022/06/08 06:42:29;;;;;;;3.22;1.05;;;18.30;99.90;;;;;;5015307;28;20393;-83
2022/06/08 06:44:56;;;;;;;5.80;1.25;;;18.40;99.90;;;;;;5015208;28;20370;-82
2022/06/08 06:47:22;;;;;;;2.80;1.10;;;18.40;99.90;;;;;;5015145;28;20022;-82
2022/06/08 06:49:48;;;;;;;7.68;1.13;;;18.40;99.90;;;;;;5032921;28;20088;-82
2022/06/08 06:52:14;;;;;;;6.38;1.65;;;18.40;99.90;;;;;;5015073;28;20116;-82
2022/06/08 06:54:41;;;;;;;5.97;1.50;;;18.40;99.90;;;;;;5015177;28;20113;-83
2022/06/08 06:57:08;;;;;;;3.50;1.63;;;18.40;99.90;;;;;;5032856;28;20026;-82
2022/06/08 06:59:38;;;;;;;7.88;1.90;;;18.40;99.90;;;;;;5001380;28;20036;-83
2022/06/08 07:02:13;;;;;;;4.85;1.70;;;18.40;99.90;;;;;;5036607;28;20053;-83
2022/06/08 07:04:39;;;;;;;4.05;1.63;;;18.50;99.90;;;;;;5036875;28;20033;-83
2022/06/08 07:07:06;;;;;;;3.20;1.77;;;18.50;99.90;;;;;;5018701;28;20047;-83
2022/06/08 07:09:32;;;;;;;5.25;1.50;;;18.50;99.90;;;;;;5018662;28;20056;-82
2022/06/08 07:11:58;;;;;;;4.90;1.90;;;18.50;99.90;;;;;;5036669;28;20025;-82
2022/06/08 07:14:24;;;;;;;5.10;1.50;;;18.50;99.90;;;;;;5036633;28;20024;-82
2022/06/08 07:16:51;;;;;;;4.63;1.70;;;18.50;99.90;;;;;;5018676;28;20018;-83
2022/06/08 07:19:17;;;;;;;4.75;1.50;;;18.60;99.90;;;;;;5018519;28;20109;-82
2022/06/08 07:21:45;;;;;;;5.20;1.67;;;18.60;99.90;;;;;;5018540;28;20121;-83
2022/06/08 07:24:21;;;;;;;5.53;1.60;;;18.60;99.90;;;;;;5030094;28;20056;-82
2022/06/08 07:26:48;;;;;;;8.00;1.55;;;18.60;99.90;;;;;;5056355;28;20056;-82
2022/06/08 07:29:14;;;;;;;5.03;1.60;;;18.60;99.90;;;;;;5038845;28;20032;-82
2022/06/08 07:31:40;;;;;;;2.63;1.35;;;18.60;99.90;;;;;;5038116;28;20380;-82
2022/06/08 07:34:07;;;;;;;5.47;1.50;;;18.70;99.90;;;;;;5055922;28;20028;-81
2022/06/08 07:36:33;;;;;;;8.77;1.63;;;18.70;99.90;;;;;;5037938;28;20048;-83
2022/06/08 07:38:58;;;;;;;4.70;1.50;;;18.60;99.90;;;;;;5037973;28;20025;-82
2022/06/08 07:41:24;;;;;;;3.35;1.40;;;18.60;99.90;;;;;;5056381;28;20029;-82
2022/06/08 07:43:50;;;;;;;4.43;1.40;;;18.60;99.90;;;;;;5055776;28;20035;-82
2022/06/08 07:46:19;;;;;;;3.75;1.33;;;18.60;99.90;;;;;;5037729;28;20036;-81
2022/06/08 07:51:29;;;;;;;6.22;1.30;;;18.60;99.90;;;;;;5055961;28;20032;-83
2022/06/08 07:53:55;;;;;;;5.28;1.40;;;18.60;99.90;;;;;;5055575;28;20392;-82
2022/06/08 07:56:21;;;;;;;3.33;1.20;;;18.60;99.90;;;;;;5037610;28;20025;-82
2022/06/08 07:58:48;;;;;;;4.50;1.35;;;18.60;99.90;;;;;;5037553;28;20032;-84
2022/06/08 08:01:16;;;;;;;5.10;1.15;;;18.60;99.90;;;;;;5055882;28;20059;-82
2022/06/08 08:03:41;;;;;;;7.90;1.45;;;18.60;99.90;;;;;;5037418;28;20021;-82
2022/06/08 08:06:09;;;;;;;5.82;1.30;;;18.70;99.90;;;;;;5055273;28;20025;-82
2022/06/08 08:08:36;;;;;;;5.10;1.50;;;18.60;99.90;;;;;;5055271;28;20013;-82
2022/06/08 08:11:06;;;;;;;3.92;1.50;;;18.70;99.90;;;;;;5055282;28;20067;-82
2022/06/08 08:13:32;;;;;;;4.95;1.48;;;18.70;99.90;;;;;;5055164;28;20027;-82
2022/06/08 08:15:58;;;;;;;2.83;1.30;;;18.70;99.90;;;;;;5054848;28;20040;-83
2022/06/08 08:18:24;;;;;;;2.70;1.20;;;18.70;99.90;;;;;;5037227;28;20476;-82
2022/06/08 08:20:51;;;;;;;6.78;1.30;;;18.80;99.90;;;;;;5055063;28;20035;-81
2022/06/08 08:23:16;;;;;;;5.07;1.30;;;18.80;99.90;;;;;;5036902;28;20091;-81
2022/06/08 08:25:42;;;;;;;3.75;1.27;;;18.80;99.90;;;;;;5055208;28;20053;-83
2022/06/08 08:28:09;;;;;;;5.28;1.20;;;18.90;99.90;;;;;;5036903;28;20049;-82
2022/06/08 08:30:36;;;;;;;3.17;1.30;;;18.90;99.90;;;;;;5054820;28;20092;-81
2022/06/08 08:33:02;;;;;;;4.93;1.35;;;18.90;99.90;;;;;;5037191;28;20025;-81
2022/06/08 08:35:28;;;;;;;4.88;1.40;;;19.00;99.90;;;;;;5036912;28;20087;-82
2022/06/08 08:37:56;;;;;;;5.93;1.13;;;19.00;99.90;;;;;;5054691;28;20029;-82
2022/06/08 08:40:45;;;;;;;6.53;1.60;;;19.10;99.90;;;;;;5036832;28;20044;-82
2022/06/08 08:43:21;;;;;;;5.22;1.40;;;19.10;99.90;;;;;;5036729;28;20460;-82
2022/06/08 08:46:28;;;;;;;4.95;1.30;;;19.10;99.90;;;;;;5054824;28;20112;-82
2022/06/08 08:49:03;;;;;;;2.85;1.15;;;19.20;99.90;;;;;;5036095;28;20033;-84
2022/06/08 08:51:43;;;;;;;5.35;1.48;;;19.10;99.90;;;;;;5036964;28;20112;-81
2022/06/08 08:54:15;;;;;;;5.15;1.00;;;19.20;99.90;;;;;;5036596;28;20028;-82
2022/06/08 08:56:42;;;;;;;6.20;1.17;;;19.20;99.90;;;;;;5054404;28;20033;-82
2022/06/08 08:59:30;;;;;;;3.25;1.20;;;19.20;99.90;;;;;;5036397;28;20082;-82
2022/06/08 09:01:58;;;;;;;3.97;1.42;;;19.20;99.90;;;;;;5054342;28;20025;-82
2022/06/08 09:04:33;;;;;;;3.25;1.13;;;19.20;99.90;;;;;;5036915;28;20029;-82
2022/06/08 09:07:16;;;;;;;6.22;1.50;;;19.20;99.90;;;;;;5036230;28;20029;-83
2022/06/08 09:09:46;;;;;;;5.70;1.30;;;19.20;99.90;;;;;;5052857;28;20024;-82
2022/06/08 09:12:14;;;;;;;4.32;1.27;;;19.30;99.90;;;;;;5036206;28;20491;-83
2022/06/08 09:15:00;;;;;;;3.60;1.13;;;19.20;99.90;;;;;;5019896;28;20116;-84
2022/06/08 09:17:40;;;;;;;4.95;1.20;;;19.30;99.90;;;;;;5054033;28;20100;-82
2022/06/08 09:20:38;;;;;;;3.95;1.00;;;19.20;99.90;;;;;;5036275;28;20043;-84
2022/06/08 09:23:38;;;;;;;4.55;1.17;;;19.20;99.90;;;;;;5006749;28;20045;-83
2022/06/08 09:26:25;;;;;;;4.00;1.20;;;19.30;99.90;;;;;;4998639;28;20439;-83
2022/06/08 09:29:24;;;;;;;5.20;1.45;;;19.30;99.90;;;;;;5016611;28;20468;-82
2022/06/08 09:31:51;;;;;;;5.30;0.98;;;19.30;99.90;;;;;;5016006;28;20025;-81
2022/06/08 09:34:20;;;;;;;5.05;1.02;;;19.40;99.90;;;;;;5016099;28;20028;-80
2022/06/08 09:37:02;;;;;;;3.58;1.10;;;19.40;99.90;;;;;;5015889;28;20067;-82
2022/06/08 09:39:28;;;;;;;5.03;1.20;;;19.40;99.90;;;;;;5016039;28;20026;-81
2022/06/08 09:41:54;;;;;;;5.78;1.05;;;19.40;99.90;;;;;;5033911;28;20025;-81
2022/06/08 09:44:28;;;;;;;3.45;0.93;;;19.40;99.90;;;;;;5033627;28;20110;-83
2022/06/08 09:53:04;;;;;;;5.38;1.20;;;19.50;99.90;;;;;;5034095;28;20029;-81
2022/06/08 09:55:48;;;;;;;3.25;0.80;;;19.50;99.90;;;;;;5033472;28;20026;-81
2022/06/08 09:58:35;;;;;;;3.70;0.90;;;19.50;99.90;;;;;;5033694;28;20025;-80
2022/06/08 10:01:49;;;;;;;3.80;1.30;;;19.50;99.90;;;;;;5033241;28;20021;-81
2022/06/08 10:04:29;;;;;;;3.83;0.98;;;19.60;99.90;;;;;;5011748;28;20029;-81
2022/06/08 10:07:21;;;;;;;3.83;1.00;;;19.60;99.90;;;;;;5033438;28;20385;-81
2022/06/08 10:10:38;;;;;;;3.22;1.10;;;19.70;99.90;;;;;;5015566;28;20033;-82
2022/06/08 10:13:16;;;;;;;1.80;0.70;;;19.70;99.90;;;;;;4933339;29;20035;-81
2022/06/08 10:15:54;;;;;;;2.55;1.13;;;19.70;99.90;;;;;;4933914;29;20027;-81
2022/06/08 10:18:28;;;;;;;4.30;0.90;;;19.70;99.90;;;;;;4933871;29;20043;-81
2022/06/08 10:20:59;;;;;;;2.95;0.93;;;19.80;99.90;;;;;;4933843;29;20115;-83
2022/06/08 10:23:27;;;;;;;3.22;0.95;;;19.80;99.90;;;;;;4951273;28;20493;-81
2022/06/08 10:26:01;;;;;;;3.95;1.00;;;19.80;99.90;;;;;;5032998;28;20026;-86
2022/06/08 10:28:53;;;;;;;2.88;1.00;;;19.90;99.90;;;;;;5033025;28;20052;-81
2022/06/08 10:31:29;;;;;;;3.90;0.98;;;19.90;99.90;;;;;;5033083;28;20025;-84
2022/06/08 10:33:59;;;;;;;3.83;1.13;;;19.90;99.90;;;;;;5002036;28;20061;-83
2022/06/08 10:36:31;;;;;;;4.10;1.10;;;19.90;99.90;;;;;;5037121;28;20021;-82
2022/06/08 10:39:00;;;;;;;6.18;1.10;;;19.90;99.90;;;;;;5037149;28;20475;-82
2022/06/08 10:44:31;;;;;;;3.55;0.98;;;19.90;99.90;;;;;;5037380;28;20036;-82
2022/06/08 10:47:12;;;;;;;7.30;0.90;;;19.90;99.90;;;;;;5019062;28;20030;-81
2022/06/08 10:49:38;;;;;;;4.63;0.90;;;19.90;99.90;;;;;;5037184;28;20068;-83
2022/06/08 10:52:36;;;;;;;3.65;1.00;;;19.80;99.90;;;;;;5019135;28;20437;-83
2022/06/08 10:55:17;;;;;;;3.15;1.00;;;19.80;99.90;;;;;;5000071;28;20117;-83
2022/06/08 10:57:49;;;;;;;4.03;0.82;;;19.90;99.80;;;;;;5018911;28;20025;-83
2022/06/08 11:00:20;;;;;;;4.10;0.95;;;19.90;99.60;;;;;;5018795;28;20076;-84
2022/06/08 11:02:51;;;;;;;1.30;0.70;;;19.90;99.70;;;;;;5036542;28;20041;-83
2022/06/08 11:05:28;;;;;;;1.42;0.65;;;19.90;99.90;;;;;;5018942;28;20477;-83
2022/06/08 11:08:06;;;;;;;2.65;0.70;;;19.90;99.80;;;;;;5036784;28;20026;-82
2022/06/08 11:10:54;;;;;;;3.95;0.70;;;19.90;99.90;;;;;;5036783;28;20069;-83
2022/06/08 11:13:22;;;;;;;2.25;0.80;;;19.90;99.70;;;;;;5036446;28;20105;-84
2022/06/08 11:16:06;;;;;;;3.67;0.80;;;19.90;99.60;;;;;;5018539;28;20108;-83
2022/06/08 11:18:46;;;;;;;2.40;0.90;;;19.90;99.60;;;;;;5018592;28;20025;-83
2022/06/08 11:21:15;;;;;;;3.15;0.90;;;19.90;99.60;;;;;;5036414;28;20043;-83
2022/06/08 11:23:52;;;;;;;2.67;0.70;;;19.90;99.70;;;;;;5025990;28;20053;-83
2022/06/08 11:26:23;;;;;;;2.67;0.68;;;19.90;99.40;;;;;;5056646;28;20021;-83
2022/06/08 11:29:11;;;;;;;3.08;0.90;;;19.90;99.60;;;;;;5056346;28;20021;-83
2022/06/08 11:31:38;;;;;;;4.88;1.05;;;19.90;99.60;;;;;;5054353;28;20511;-83
2022/06/08 11:34:13;;;;;;;2.60;0.80;;;20.00;99.50;;;;;;5037980;28;20091;-83
2022/06/08 11:37:00;;;;;;;3.13;0.80;;;20.10;99.40;;;;;;5038115;28;20029;-83
2022/06/08 11:39:29;;;;;;;4.35;0.70;;;20.10;99.70;;;;;;5055850;28;20025;-82
2022/06/08 11:42:27;;;;;;;2.05;0.88;;;20.10;99.30;;;;;;5037956;28;20423;-82
2022/06/08 11:45:22;;;;;;;2.35;0.65;;;20.10;99.40;;;;;;5055187;28;20040;-82
2022/06/08 11:48:13;;;;;;;2.42;0.80;;;20.20;99.00;;;;;;5037859;28;20028;-84
2022/06/08 11:51:03;;;;;;;4.30;1.05;;;20.20;99.10;;;;;;5037828;28;20029;-82
2022/06/08 11:53:28;;;;;;;2.72;0.85;;;20.30;99.00;;;;;;5055641;28;20427;-83
2022/06/08 11:56:32;;;;;;;1.48;0.70;;;20.30;98.80;;;;;;5037695;28;20027;-82
2022/06/08 11:59:01;;;;;;;1.52;0.60;;;20.20;98.80;;;;;;5037491;28;20492;-82
2022/06/08 12:01:32;;;;;;;3.92;0.88;;;20.30;98.90;;;;;;5021221;28;20094;-85
2022/06/08 12:04:21;;;;;;;3.67;0.90;;;20.30;98.90;;;;;;5037595;28;20085;-82
2022/06/08 12:06:49;;;;;;;2.72;0.80;;;20.30;98.70;;;;;;5036766;28;20033;-82
2022/06/08 12:09:18;;;;;;;3.63;0.80;;;20.30;98.70;;;;;;5037471;28;20017;-83
2022/06/08 12:11:47;;;;;;;2.78;0.57;;;20.30;98.70;;;;;;5055500;28;20017;-82
2022/06/08 12:14:45;;;;;;;2.63;0.60;;;20.30;98.80;;;;;;5037389;28;20111;-82
2022/06/08 12:17:14;;;;;;;1.58;0.80;;;20.20;98.80;;;;;;5051984;28;20076;-82
2022/06/08 12:19:44;;;;;;;6.38;0.80;;;20.20;98.90;;;;;;5037273;28;20051;-82
2022/06/08 12:22:16;;;;;;;3.30;0.85;;;20.20;99.00;;;;;;5055046;28;20033;-83
2022/06/08 12:24:44;;;;;;;2.63;0.80;;;20.20;99.10;;;;;;5038789;28;20124;-83
2022/06/08 12:27:21;;;;;;;1.40;0.75;;;20.20;99.10;;;;;;5017267;28;20060;-83
2022/06/08 12:29:56;;;;;;;6.97;0.73;;;20.20;99.00;;;;;;5035314;28;20385;-82
2022/06/08 12:32:36;;;;;;;2.65;0.77;;;20.20;99.20;;;;;;5014493;28;20026;-82
2022/06/08 12:35:05;;;;;;;1.67;0.50;;;20.20;98.90;;;;;;5017710;28;20532;-83
2022/06/08 12:37:37;;;;;;;3.65;0.80;;;20.20;99.20;;;;;;5017150;28;20484;-83
2022/06/08 12:40:28;;;;;;;4.88;0.80;;;20.20;99.20;;;;;;5017033;28;20112;-83
2022/06/08 12:43:17;;;;;;;0.90;0.50;;;20.30;99.10;;;;;;5013818;28;20022;-83
2022/06/08 12:46:06;;;;;;;2.42;0.70;;;20.30;99.00;;;;;;5016851;28;20079;-83
2022/06/08 12:48:53;;;;;;;1.55;0.52;;;20.40;98.90;;;;;;5016933;28;20049;-82
2022/06/08 12:51:32;;;;;;;2.70;0.60;;;20.40;98.40;;;;;;5034161;28;20033;-82
2022/06/08 12:53:59;;;;;;;1.92;0.70;;;20.50;98.50;;;;;;5016819;28;20033;-82
2022/06/08 12:56:27;;;;;;;3.95;0.70;;;20.40;98.60;;;;;;5015878;28;20036;-83
2022/06/08 12:58:54;;;;;;;3.60;0.90;;;20.40;98.60;;;;;;5016651;28;20496;-82
2022/06/08 13:01:22;;;;;;;1.17;0.52;;;20.40;98.70;;;;;;5016969;28;20079;-82
2022/06/08 13:03:48;;;;;;;4.18;0.65;;;20.40;98.80;;;;;;5034440;28;20037;-83
2022/06/08 13:06:15;;;;;;;6.53;1.08;;;20.40;98.80;;;;;;5034531;28;20376;-81
2022/06/08 13:08:41;;;;;;;2.90;0.88;;;20.40;98.80;;;;;;5016536;28;20036;-81
2022/06/08 13:11:13;;;;;;;2.72;1.00;;;20.30;98.70;;;;;;5016564;28;20021;-82
2022/06/08 13:13:40;;;;;;;3.22;0.73;;;20.30;98.90;;;;;;5034224;28;20027;-82
2022/06/08 13:16:24;;;;;;;3.45;0.90;;;20.20;98.90;;;;;;5034410;28;20065;-82
2022/06/08 13:18:51;;;;;;;2.88;1.05;;;20.20;99.00;;;;;;5034156;28;20049;-82
2022/06/08 13:21:18;;;;;;;3.47;0.93;;;20.10;99.10;;;;;;5016376;28;20029;-82
2022/06/08 13:23:44;;;;;;;4.30;0.93;;;20.10;99.10;;;;;;5024129;28;20055;-82
2022/06/08 13:26:19;;;;;;;2.85;0.95;;;20.10;99.20;;;;;;5053897;28;20021;-82
2022/06/08 13:28:47;;;;;;;1.77;0.82;;;20.00;99.20;;;;;;5036182;28;20369;-82
2022/06/08 13:31:13;;;;;;;2.50;0.80;;;20.00;99.40;;;;;;5035877;28;20021;-83